Time;durP1;ratioP1;P1;durP2;ratioP2;P2;SDS_P1;SDS_P2;PMS_P1;PMS_P2;Temp;Humidity;BMP_temperature;BMP_pressure;BME280_temperature;BME280_humidity;BME280_pressure;Samples;Min_cycle;Max_cycle;Signal;HPM_P1;HPM_P2
2023/04/20 00:00:16;;;;;;;6.40;2.10;;;9.20;99.90;;;;;;5097135;28;20071;-82
2023/04/20 00:02:42;;;;;;;4.55;1.70;;;9.20;99.90;;;;;;5097321;28;20123;-82
2023/04/20 00:05:09;;;;;;;4.25;1.83;;;9.20;99.90;;;;;;5097187;28;20491;-82
2023/04/20 00:07:35;;;;;;;4.70;1.80;;;9.20;99.90;;;;;;5097282;28;20566;-81
2023/04/20 00:10:02;;;;;;;6.75;1.85;;;9.20;99.90;;;;;;5097325;28;20039;-81
2023/04/20 00:12:28;;;;;;;4.43;1.75;;;9.30;99.90;;;;;;5095798;28;20078;-82
2023/04/20 00:14:54;;;;;;;3.15;1.60;;;9.20;99.90;;;;;;5097081;28;20086;-82
2023/04/20 00:17:20;;;;;;;4.72;2.20;;;9.20;99.90;;;;;;5097029;28;20432;-82
2023/04/20 00:19:46;;;;;;;5.13;1.80;;;9.20;99.90;;;;;;5095833;28;20051;-82
2023/04/20 00:22:12;;;;;;;6.10;1.73;;;9.20;99.90;;;;;;5096701;28;20047;-81
2023/04/20 00:24:37;;;;;;;5.75;2.03;;;9.10;99.90;;;;;;5097005;28;20485;-81
2023/04/20 00:27:06;;;;;;;4.88;1.25;;;9.20;99.90;;;;;;5096903;28;20036;-81
2023/04/20 00:29:32;;;;;;;5.72;1.60;;;9.20;99.90;;;;;;5095439;28;20084;-82
2023/04/20 00:31:58;;;;;;;4.35;1.60;;;9.30;99.90;;;;;;5096766;28;20083;-81
2023/04/20 00:34:23;;;;;;;4.93;1.60;;;9.20;99.90;;;;;;5096759;28;20044;-82
2023/04/20 00:36:49;;;;;;;4.82;1.80;;;9.20;99.90;;;;;;5096676;28;20043;-82
2023/04/20 00:39:15;;;;;;;6.13;1.70;;;9.20;99.90;;;;;;5096692;28;20441;-81
2023/04/20 00:41:40;;;;;;;7.72;1.75;;;9.20;99.90;;;;;;5096701;28;20040;-81
2023/04/20 00:44:12;;;;;;;4.35;1.45;;;9.20;99.90;;;;;;5096641;28;20074;-81
2023/04/20 00:46:39;;;;;;;6.33;1.63;;;9.20;99.90;;;;;;5096559;28;20051;-81
2023/04/20 00:49:06;;;;;;;4.38;1.40;;;9.10;99.90;;;;;;5096265;28;20050;-81
2023/04/20 00:51:32;;;;;;;10.32;1.55;;;9.20;99.90;;;;;;5096425;28;20048;-81
2023/04/20 00:53:58;;;;;;;6.82;1.60;;;9.20;99.90;;;;;;5095132;28;20106;-82
2023/04/20 00:56:23;;;;;;;4.28;1.42;;;9.20;99.90;;;;;;5096421;28;20116;-81
2023/04/20 00:58:49;;;;;;;5.20;2.45;;;9.20;99.90;;;;;;5094304;28;20444;-81
2023/04/20 01:01:16;;;;;;;7.18;1.67;;;9.20;99.90;;;;;;5096366;28;20079;-81
2023/04/20 01:03:43;;;;;;;5.28;1.50;;;9.20;99.90;;;;;;5095860;28;20522;-82
2023/04/20 01:06:09;;;;;;;3.67;1.73;;;9.20;99.90;;;;;;5096035;28;20581;-81
2023/04/20 01:08:43;;;;;;;4.78;1.40;;;9.30;99.90;;;;;;5096100;28;20042;-82
2023/04/20 01:11:09;;;;;;;4.72;1.83;;;9.20;99.90;;;;;;5096280;28;20048;-82
2023/04/20 01:13:37;;;;;;;6.82;1.88;;;9.20;99.90;;;;;;5094797;28;20055;-81
2023/04/20 01:16:03;;;;;;;5.38;1.80;;;9.20;99.90;;;;;;5095865;28;20040;-81
2023/04/20 01:18:28;;;;;;;6.32;1.65;;;9.10;99.90;;;;;;5095556;28;20050;-81
2023/04/20 01:20:54;;;;;;;6.75;1.60;;;9.10;99.90;;;;;;5095184;28;20079;-81
2023/04/20 01:23:19;;;;;;;5.90;1.20;;;9.10;99.90;;;;;;5095428;28;20051;-81
2023/04/20 01:25:45;;;;;;;5.03;1.38;;;9.10;99.90;;;;;;5094623;28;20063;-81
2023/04/20 01:28:13;;;;;;;4.63;1.60;;;9.10;99.90;;;;;;5094520;28;20055;-81
2023/04/20 01:30:38;;;;;;;5.70;2.08;;;9.20;99.90;;;;;;5095627;28;20039;-81
2023/04/20 01:33:04;;;;;;;5.53;1.92;;;9.10;99.90;;;;;;5095547;28;20403;-81
2023/04/20 01:35:30;;;;;;;6.22;1.77;;;9.10;99.90;;;;;;5095426;28;20390;-81
2023/04/20 01:37:55;;;;;;;5.93;1.63;;;9.10;99.90;;;;;;5095543;28;20028;-81
2023/04/20 01:40:21;;;;;;;6.60;1.52;;;9.10;99.90;;;;;;5094309;28;20043;-81
2023/04/20 01:42:47;;;;;;;4.00;2.10;;;9.10;99.90;;;;;;5095476;28;20504;-82
2023/04/20 01:45:12;;;;;;;9.50;2.30;;;9.00;99.90;;;;;;5094360;28;20028;-81
2023/04/20 01:47:38;;;;;;;6.35;2.15;;;9.00;99.90;;;;;;5095289;28;20052;-82
2023/04/20 01:50:04;;;;;;;4.93;1.42;;;9.10;99.90;;;;;;5095103;28;20356;-82
2023/04/20 01:52:29;;;;;;;5.85;1.83;;;9.00;99.90;;;;;;5095638;28;20158;-81
2023/04/20 01:54:55;;;;;;;7.40;1.70;;;9.00;99.90;;;;;;5095048;28;20132;-82
2023/04/20 01:57:20;;;;;;;5.75;1.92;;;9.00;99.90;;;;;;5095195;28;20040;-82
2023/04/20 01:59:47;;;;;;;4.32;1.85;;;9.00;99.90;;;;;;5093855;28;20143;-81
2023/04/20 02:02:13;;;;;;;5.57;1.95;;;8.90;99.90;;;;;;5095004;28;20047;-81
2023/04/20 02:04:39;;;;;;;5.50;1.90;;;9.00;99.90;;;;;;5095050;28;20044;-81
2023/04/20 02:07:04;;;;;;;5.38;1.67;;;8.90;99.90;;;;;;5093718;28;20043;-81
2023/04/20 02:09:30;;;;;;;8.20;2.28;;;8.90;99.90;;;;;;5094961;28;20541;-81
2023/04/20 02:11:56;;;;;;;5.57;2.45;;;8.90;99.90;;;;;;5094672;28;20481;-81
2023/04/20 02:14:21;;;;;;;7.22;1.90;;;8.90;99.90;;;;;;5094582;28;20108;-81
2023/04/20 02:16:47;;;;;;;5.97;2.08;;;8.90;99.90;;;;;;5094765;28;20036;-81
2023/04/20 02:19:12;;;;;;;10.18;1.90;;;8.90;99.90;;;;;;5094689;28;20460;-81
2023/04/20 02:21:38;;;;;;;12.30;2.83;;;8.80;99.90;;;;;;5094604;28;20097;-81
2023/04/20 02:24:05;;;;;;;6.13;2.80;;;8.80;99.90;;;;;;5092994;28;20059;-81
2023/04/20 02:26:32;;;;;;;6.53;2.28;;;8.80;99.90;;;;;;5094280;28;20052;-80
2023/04/20 02:28:58;;;;;;;10.57;2.70;;;8.80;99.90;;;;;;5094492;28;20047;-80
2023/04/20 02:31:24;;;;;;;8.60;2.63;;;8.80;99.90;;;;;;5094435;28;20051;-81
2023/04/20 02:33:50;;;;;;;5.82;2.40;;;8.70;99.90;;;;;;5094295;28;20052;-81
2023/04/20 02:36:15;;;;;;;9.45;2.80;;;8.80;99.90;;;;;;5094390;28;20047;-81
2023/04/20 02:38:41;;;;;;;10.45;2.20;;;8.70;99.90;;;;;;5094192;28;20395;-81
2023/04/20 02:41:07;;;;;;;7.72;2.20;;;8.70;99.90;;;;;;5094273;28;20471;-81
2023/04/20 02:43:34;;;;;;;9.40;3.20;;;8.70;99.90;;;;;;5094227;28;20043;-80
2023/04/20 02:46:00;;;;;;;7.45;2.30;;;8.70;99.90;;;;;;5092911;28;20479;-81
2023/04/20 02:48:26;;;;;;;8.38;3.08;;;8.70;99.90;;;;;;5093971;28;20051;-80
2023/04/20 02:50:55;;;;;;;9.90;2.70;;;8.60;99.90;;;;;;5094227;28;20040;-81
2023/04/20 02:53:20;;;;;;;9.23;2.97;;;8.70;99.90;;;;;;5092708;28;20048;-81
2023/04/20 02:55:46;;;;;;;9.13;2.33;;;8.70;99.90;;;;;;5093994;28;20044;-81
2023/04/20 02:58:12;;;;;;;7.60;2.28;;;8.70;99.90;;;;;;5092709;28;20040;-81
2023/04/20 03:00:37;;;;;;;7.30;2.40;;;8.70;99.90;;;;;;5092974;28;20050;-82
2023/04/20 03:03:03;;;;;;;9.73;3.03;;;8.70;99.90;;;;;;5093753;28;20050;-81
2023/04/20 03:05:29;;;;;;;9.90;3.10;;;8.60;99.90;;;;;;5093682;28;20097;-81
2023/04/20 03:07:55;;;;;;;8.38;3.10;;;8.60;99.90;;;;;;5093961;28;20487;-82
2023/04/20 03:10:21;;;;;;;8.55;2.72;;;8.60;99.90;;;;;;5093882;28;20052;-81
2023/04/20 03:12:46;;;;;;;9.13;2.50;;;8.60;99.90;;;;;;5093976;28;20051;-81
2023/04/20 03:15:12;;;;;;;11.48;2.90;;;8.70;99.90;;;;;;5092482;28;20048;-81
2023/04/20 03:17:38;;;;;;;7.68;3.15;;;8.60;99.90;;;;;;5093963;28;20071;-81
2023/04/20 03:20:04;;;;;;;7.60;2.92;;;8.60;99.90;;;;;;5092313;28;20044;-81
2023/04/20 03:22:29;;;;;;;10.70;3.15;;;8.60;99.90;;;;;;5093319;28;20135;-81
2023/04/20 03:24:57;;;;;;;10.15;3.33;;;8.60;99.90;;;;;;5093733;28;20131;-82
2023/04/20 03:27:23;;;;;;;12.10;2.88;;;8.50;99.90;;;;;;5093779;28;20040;-81
2023/04/20 03:29:49;;;;;;;8.02;2.83;;;8.50;99.90;;;;;;5092341;28;20055;-82
2023/04/20 03:32:15;;;;;;;10.57;2.60;;;8.50;99.90;;;;;;5093587;28;20036;-81
2023/04/20 03:34:40;;;;;;;7.55;3.08;;;8.50;99.90;;;;;;5093523;28;20104;-81
2023/04/20 03:37:06;;;;;;;13.35;3.05;;;8.50;99.90;;;;;;5093542;28;20088;-81
2023/04/20 03:39:31;;;;;;;13.10;3.13;;;8.50;99.90;;;;;;5092460;28;20052;-82
2023/04/20 03:41:58;;;;;;;6.40;2.20;;;8.50;99.90;;;;;;5092412;28;20040;-81
2023/04/20 03:44:24;;;;;;;8.88;2.53;;;8.50;99.90;;;;;;5093609;28;20044;-81
2023/04/20 03:46:49;;;;;;;8.90;3.53;;;8.50;99.90;;;;;;5092218;28;20048;-82
2023/04/20 03:49:15;;;;;;;10.55;3.25;;;8.50;99.90;;;;;;5093698;28;20050;-81
2023/04/20 03:51:41;;;;;;;13.32;3.30;;;8.50;99.90;;;;;;5093667;28;20067;-81
2023/04/20 03:54:06;;;;;;;13.13;2.47;;;8.50;99.90;;;;;;5093502;28;20036;-82
2023/04/20 03:56:32;;;;;;;7.05;2.60;;;8.50;99.90;;;;;;5093749;28;20047;-82
2023/04/20 03:58:57;;;;;;;10.18;2.92;;;8.50;99.90;;;;;;5093544;28;20040;-80
2023/04/20 04:01:23;;;;;;;8.02;2.55;;;8.50;99.90;;;;;;5092211;28;20047;-81
2023/04/20 04:03:49;;;;;;;7.55;2.53;;;8.50;99.90;;;;;;5093602;28;20118;-81
2023/04/20 04:06:15;;;;;;;9.48;2.67;;;8.50;99.90;;;;;;5093506;28;20123;-82
2023/04/20 04:08:41;;;;;;;11.18;3.67;;;8.50;99.90;;;;;;5093489;28;20123;-82
2023/04/20 04:11:06;;;;;;;11.30;3.05;;;8.50;99.90;;;;;;5093439;28;20388;-82
2023/04/20 04:13:32;;;;;;;8.52;3.00;;;8.50;99.90;;;;;;5093174;28;20047;-81
2023/04/20 04:15:57;;;;;;;12.82;3.65;;;8.40;99.90;;;;;;5093253;28;20075;-82
2023/04/20 04:18:23;;;;;;;7.97;2.72;;;8.40;99.90;;;;;;5093134;28;20028;-81
2023/04/20 04:20:49;;;;;;;9.32;2.83;;;8.40;99.90;;;;;;5091660;28;20516;-82
2023/04/20 04:23:16;;;;;;;10.50;2.53;;;8.40;99.90;;;;;;5091536;28;20502;-82
2023/04/20 04:25:42;;;;;;;10.05;3.15;;;8.40;99.90;;;;;;5092341;28;20043;-81
2023/04/20 04:28:07;;;;;;;10.93;2.80;;;8.40;99.90;;;;;;5092205;28;20387;-81
2023/04/20 04:30:33;;;;;;;7.07;2.70;;;8.30;99.90;;;;;;5092968;28;20040;-81
2023/04/20 04:32:59;;;;;;;8.10;3.55;;;8.30;99.90;;;;;;5094613;28;20047;-82
2023/04/20 04:35:25;;;;;;;9.50;3.33;;;8.30;99.90;;;;;;5096541;28;20044;-82
2023/04/20 04:37:54;;;;;;;11.18;3.08;;;8.30;99.90;;;;;;5095149;28;20126;-82
2023/04/20 04:40:19;;;;;;;8.88;2.72;;;8.30;99.90;;;;;;5096659;28;20044;-82
2023/04/20 04:42:47;;;;;;;7.30;2.78;;;8.30;99.90;;;;;;5096295;28;20055;-81
2023/04/20 04:45:13;;;;;;;11.82;3.00;;;8.30;99.90;;;;;;5095282;28;20047;-81
2023/04/20 04:47:42;;;;;;;5.32;2.58;;;8.30;99.90;;;;;;5095569;28;20044;-81
2023/04/20 04:50:09;;;;;;;9.32;3.30;;;8.20;99.90;;;;;;5096510;28;20040;-82
2023/04/20 04:52:35;;;;;;;12.20;3.08;;;8.30;99.90;;;;;;5096467;28;20055;-81
2023/04/20 04:55:01;;;;;;;8.50;3.30;;;8.30;99.90;;;;;;5096359;28;20075;-81
2023/04/20 04:57:27;;;;;;;9.65;3.47;;;8.30;99.90;;;;;;5096426;28;20044;-81
2023/04/20 04:59:53;;;;;;;9.32;2.70;;;8.20;99.90;;;;;;5096087;28;20066;-82
2023/04/20 05:02:19;;;;;;;9.90;2.85;;;8.30;99.90;;;;;;5095502;28;20047;-82
2023/04/20 05:04:44;;;;;;;12.07;3.03;;;8.30;99.90;;;;;;5094891;28;20169;-81
2023/04/20 05:07:10;;;;;;;8.50;2.70;;;8.30;99.90;;;;;;5096166;28;20065;-81
2023/04/20 05:09:36;;;;;;;7.25;3.40;;;8.30;99.90;;;;;;5095815;28;20047;-82
2023/04/20 05:12:02;;;;;;;9.07;2.65;;;8.30;99.90;;;;;;5095979;28;20044;-82
2023/04/20 05:14:30;;;;;;;10.13;2.42;;;8.30;99.90;;;;;;5095871;28;20032;-82
2023/04/20 05:16:57;;;;;;;6.93;2.40;;;8.30;99.90;;;;;;5095014;28;20139;-82
2023/04/20 05:19:23;;;;;;;7.30;2.28;;;8.30;99.90;;;;;;5094433;28;20087;-82
2023/04/20 05:21:49;;;;;;;11.05;3.10;;;8.30;99.90;;;;;;5095517;28;20082;-83
2023/04/20 05:24:19;;;;;;;8.27;3.10;;;8.30;99.90;;;;;;5094171;28;20135;-82
2023/04/20 05:26:45;;;;;;;15.35;4.05;;;8.30;99.90;;;;;;5094534;28;20093;-82
2023/04/20 05:29:11;;;;;;;7.88;2.63;;;8.30;99.90;;;;;;5095690;28;20044;-82
2023/04/20 05:31:36;;;;;;;8.75;3.05;;;8.30;99.90;;;;;;5095655;28;20090;-82
2023/04/20 05:34:02;;;;;;;7.07;2.95;;;8.30;99.90;;;;;;5095469;28;20483;-83
2023/04/20 05:36:28;;;;;;;10.65;3.42;;;8.40;99.90;;;;;;5095637;28;20040;-83
2023/04/20 05:38:54;;;;;;;7.30;2.67;;;8.30;99.90;;;;;;5095462;28;20036;-82
2023/04/20 05:41:25;;;;;;;9.23;2.22;;;8.30;99.90;;;;;;5095490;28;20050;-82
2023/04/20 05:43:51;;;;;;;4.75;2.17;;;8.40;99.90;;;;;;5095093;28;20051;-83
2023/04/20 05:46:17;;;;;;;5.00;2.40;;;8.40;99.90;;;;;;5095272;28;20065;-83
2023/04/20 05:48:42;;;;;;;9.15;2.30;;;8.50;99.90;;;;;;5095316;28;20039;-83
2023/04/20 05:51:08;;;;;;;4.78;2.05;;;8.50;99.90;;;;;;5095118;28;20048;-83
2023/04/20 05:53:34;;;;;;;11.18;2.53;;;8.50;99.90;;;;;;5093687;28;20125;-83
2023/04/20 05:55:59;;;;;;;10.02;2.75;;;8.50;99.90;;;;;;5095144;28;20044;-82
2023/04/20 05:58:26;;;;;;;7.75;2.22;;;8.50;99.90;;;;;;5095204;28;20067;-82
2023/04/20 06:00:51;;;;;;;8.05;2.35;;;8.50;99.90;;;;;;5094926;28;20044;-83
2023/04/20 06:03:17;;;;;;;7.93;2.40;;;8.50;99.90;;;;;;5093775;28;20051;-82
2023/04/20 06:05:43;;;;;;;7.70;2.25;;;8.50;99.90;;;;;;5094667;28;20044;-82
2023/04/20 06:08:08;;;;;;;6.72;2.88;;;8.60;99.90;;;;;;5094933;28;20040;-82
2023/04/20 06:10:34;;;;;;;7.15;3.08;;;8.50;99.90;;;;;;5094543;28;20098;-83
2023/04/20 06:13:00;;;;;;;9.05;2.83;;;8.60;99.90;;;;;;5094684;28;20044;-83
2023/04/20 06:15:29;;;;;;;6.13;2.45;;;8.60;99.90;;;;;;5094596;28;20121;-82
2023/04/20 06:17:54;;;;;;;9.00;2.83;;;8.60;99.90;;;;;;5094398;28;20040;-81
2023/04/20 06:20:20;;;;;;;10.93;2.67;;;8.60;99.90;;;;;;5093140;28;20047;-81
2023/04/20 06:22:46;;;;;;;8.02;2.30;;;8.60;99.90;;;;;;5094117;28;20075;-81
2023/04/20 06:25:14;;;;;;;3.78;1.75;;;8.60;99.90;;;;;;5094570;28;20109;-82
2023/04/20 06:27:40;;;;;;;10.93;2.42;;;8.60;99.90;;;;;;5094444;28;20048;-82
2023/04/20 06:30:06;;;;;;;6.78;2.42;;;8.60;99.90;;;;;;5093020;28;20044;-81
2023/04/20 06:32:32;;;;;;;11.18;2.47;;;8.60;99.90;;;;;;5094383;28;20040;-81
2023/04/20 06:34:58;;;;;;;7.80;2.53;;;8.60;99.90;;;;;;5094266;28;20106;-81
2023/04/20 06:37:24;;;;;;;8.27;2.35;;;8.60;99.90;;;;;;5094045;28;20047;-80
2023/04/20 06:39:53;;;;;;;8.32;2.42;;;8.50;99.90;;;;;;5094256;28;20047;-82
2023/04/20 06:42:19;;;;;;;7.32;2.45;;;8.60;99.90;;;;;;5094216;28;20495;-83
2023/04/20 06:44:45;;;;;;;8.05;2.60;;;8.50;99.90;;;;;;5092979;28;20113;-81
2023/04/20 06:47:11;;;;;;;8.70;2.90;;;8.50;99.90;;;;;;5094069;28;20048;-82
2023/04/20 06:49:38;;;;;;;9.77;2.35;;;8.60;99.90;;;;;;5093962;28;20052;-88
2023/04/20 06:52:04;;;;;;;7.10;2.58;;;8.60;99.90;;;;;;5085409;28;20093;-81
2023/04/20 06:54:30;;;;;;;5.85;2.35;;;8.60;99.90;;;;;;5073735;28;20048;-81
2023/04/20 06:56:56;;;;;;;7.78;2.20;;;8.60;99.90;;;;;;5072760;28;20049;-81
2023/04/20 06:59:22;;;;;;;9.88;2.75;;;8.60;99.90;;;;;;5073392;28;20190;-82
2023/04/20 07:01:47;;;;;;;12.13;2.60;;;8.50;99.90;;;;;;5072291;28;20083;-79
2023/04/20 07:04:13;;;;;;;8.43;2.15;;;8.50;99.90;;;;;;5072049;28;20048;-85
2023/04/20 07:06:39;;;;;;;9.18;3.97;;;8.40;99.90;;;;;;5073375;28;20072;-82
2023/04/20 07:09:04;;;;;;;7.93;2.63;;;8.50;99.90;;;;;;5073511;28;20066;-81
2023/04/20 07:11:30;;;;;;;11.50;2.85;;;8.40;99.90;;;;;;5073386;28;20116;-81
2023/04/20 07:13:56;;;;;;;8.55;2.92;;;8.40;99.90;;;;;;5073058;28;20109;-81
2023/04/20 07:16:21;;;;;;;6.15;2.75;;;8.20;99.90;;;;;;5072106;28;20051;-80
2023/04/20 07:18:47;;;;;;;7.63;3.40;;;8.00;99.90;;;;;;5073479;28;20097;-81
2023/04/20 07:21:14;;;;;;;6.28;2.65;;;7.80;99.90;;;;;;5071840;28;20045;-81
2023/04/20 07:23:40;;;;;;;10.02;3.58;;;7.60;99.90;;;;;;5073080;28;20064;-81
2023/04/20 07:26:07;;;;;;;10.57;3.90;;;7.40;99.90;;;;;;5073419;28;20045;-80
2023/04/20 07:28:35;;;;;;;11.15;3.60;;;7.40;99.90;;;;;;5073102;28;20072;-80
2023/04/20 07:31:01;;;;;;;9.52;3.35;;;7.30;99.90;;;;;;5073545;28;20052;-80
2023/04/20 07:33:28;;;;;;;7.88;3.03;;;7.30;99.90;;;;;;5073255;28;20054;-81
2023/04/20 07:35:54;;;;;;;9.48;3.83;;;7.20;99.90;;;;;;5073302;28;20098;-81
2023/04/20 07:38:19;;;;;;;10.23;3.40;;;7.20;99.90;;;;;;5073324;28;20040;-82
2023/04/20 07:40:45;;;;;;;8.57;3.47;;;7.20;99.90;;;;;;5071811;28;20055;-82
2023/04/20 07:43:11;;;;;;;11.93;3.25;;;7.20;99.90;;;;;;5071962;28;20088;-82
2023/04/20 07:45:40;;;;;;;10.73;3.72;;;7.20;99.90;;;;;;5071980;28;20442;-80
2023/04/20 07:48:06;;;;;;;6.50;3.30;;;7.20;99.90;;;;;;5073220;28;20059;-81
2023/04/20 07:50:32;;;;;;;7.93;3.47;;;7.20;99.90;;;;;;5073327;28;20045;-82
2023/04/20 07:52:58;;;;;;;7.95;4.05;;;7.20;99.90;;;;;;5073142;28;20102;-81
2023/04/20 07:55:23;;;;;;;9.48;3.40;;;7.20;99.90;;;;;;5073068;28;20048;-83
2023/04/20 07:57:49;;;;;;;9.40;3.58;;;7.20;99.90;;;;;;5073205;28;20059;-82
2023/04/20 08:00:16;;;;;;;9.48;3.33;;;7.20;99.90;;;;;;5071631;28;20381;-82
2023/04/20 08:02:41;;;;;;;7.57;3.53;;;7.10;99.90;;;;;;5071613;28;20145;-82
2023/04/20 08:05:08;;;;;;;10.45;3.25;;;7.20;99.90;;;;;;5072741;28;20103;-81
2023/04/20 08:07:34;;;;;;;9.10;4.05;;;7.20;99.90;;;;;;5073811;28;20036;-81
2023/04/20 08:10:01;;;;;;;11.95;3.92;;;7.10;99.90;;;;;;5076815;28;20086;-81
2023/04/20 08:12:27;;;;;;;9.52;3.55;;;7.00;99.90;;;;;;5076620;28;20049;-81
2023/04/20 08:14:53;;;;;;;8.02;3.33;;;7.00;99.90;;;;;;5076557;28;20047;-81
2023/04/20 08:17:18;;;;;;;7.32;3.50;;;6.90;99.90;;;;;;5075211;28;20450;-81
2023/04/20 08:19:45;;;;;;;9.93;3.97;;;6.80;99.90;;;;;;5076377;28;20036;-82
2023/04/20 08:22:11;;;;;;;9.35;3.38;;;6.70;99.90;;;;;;5076449;28;20057;-82
2023/04/20 08:24:39;;;;;;;8.27;3.67;;;6.80;99.90;;;;;;5076463;28;20057;-82
2023/04/20 08:27:07;;;;;;;9.65;4.10;;;6.80;99.90;;;;;;5076323;28;20484;-81
2023/04/20 08:29:33;;;;;;;6.85;4.28;;;6.80;99.90;;;;;;5076304;28;20496;-81
2023/04/20 08:31:58;;;;;;;10.35;3.50;;;6.70;99.90;;;;;;5076503;28;20044;-81
2023/04/20 08:34:24;;;;;;;7.65;3.60;;;6.70;99.90;;;;;;5076141;28;20055;-81
2023/04/20 08:36:50;;;;;;;8.65;3.95;;;6.70;99.90;;;;;;5076074;28;20040;-81
2023/04/20 08:39:19;;;;;;;10.80;3.70;;;6.60;99.90;;;;;;5076371;28;20044;-81
2023/04/20 08:41:45;;;;;;;11.50;3.80;;;6.50;99.90;;;;;;5074813;28;20044;-81
2023/04/20 08:44:11;;;;;;;13.07;4.68;;;6.60;99.90;;;;;;5076280;28;20051;-81
2023/04/20 08:46:40;;;;;;;9.63;4.32;;;6.50;99.90;;;;;;5075907;28;20045;-81
2023/04/20 08:49:10;;;;;;;10.93;4.22;;;6.50;99.90;;;;;;5076298;28;20137;-81
2023/04/20 08:51:38;;;;;;;12.45;4.90;;;6.50;99.90;;;;;;5075870;28;20541;-81
2023/04/20 08:54:07;;;;;;;13.25;4.40;;;6.50;99.90;;;;;;5074681;28;20123;-80
2023/04/20 08:56:33;;;;;;;11.00;3.97;;;6.50;99.90;;;;;;5074509;28;20045;-82
2023/04/20 08:59:02;;;;;;;14.48;5.53;;;6.50;99.90;;;;;;5075934;28;20043;-81
2023/04/20 09:01:28;;;;;;;13.35;5.18;;;6.50;99.90;;;;;;5076052;28;20048;-81
2023/04/20 09:03:54;;;;;;;10.77;4.90;;;6.50;99.90;;;;;;5076031;28;20044;-81
2023/04/20 09:06:21;;;;;;;10.90;4.45;;;6.40;99.90;;;;;;5075873;28;20040;-81
2023/04/20 09:08:47;;;;;;;11.32;4.35;;;6.40;99.90;;;;;;5075886;28;20041;-80
2023/04/20 09:11:27;;;;;;;11.38;4.85;;;6.40;99.90;;;;;;5075523;28;20062;-81
2023/04/20 09:14:11;;;;;;;10.85;4.57;;;6.50;99.90;;;;;;5075804;28;20040;-80
2023/04/20 09:16:51;;;;;;;14.27;5.38;;;6.40;99.90;;;;;;5075764;28;20036;-80
2023/04/20 09:19:23;;;;;;;12.40;4.38;;;6.40;99.90;;;;;;5074824;28;20094;-80
2023/04/20 09:21:50;;;;;;;11.55;5.47;;;6.40;99.90;;;;;;5075010;28;20395;-80
2023/04/20 09:24:23;;;;;;;13.05;5.25;;;6.40;99.90;;;;;;5074117;28;20555;-80
2023/04/20 09:26:48;;;;;;;12.38;4.65;;;6.50;99.90;;;;;;5075557;28;20044;-80
2023/04/20 09:29:18;;;;;;;12.18;5.65;;;6.50;99.90;;;;;;5075158;28;20171;-80
2023/04/20 09:31:44;;;;;;;10.93;4.97;;;6.50;99.90;;;;;;5074434;28;20123;-80
2023/04/20 09:34:11;;;;;;;8.18;4.00;;;6.60;99.90;;;;;;5075332;28;20171;-81
2023/04/20 09:36:39;;;;;;;11.85;5.18;;;6.60;99.90;;;;;;5074919;28;20086;-81
2023/04/20 09:39:19;;;;;;;13.93;5.40;;;6.50;99.90;;;;;;5091723;28;20082;-81
2023/04/20 09:41:45;;;;;;;13.00;5.45;;;6.50;99.90;;;;;;5093960;28;20051;-81
2023/04/20 09:44:12;;;;;;;12.65;5.15;;;6.60;99.90;;;;;;5095436;28;20127;-82
2023/04/20 09:46:40;;;;;;;8.52;4.25;;;6.60;99.90;;;;;;5094203;28;20052;-81
2023/04/20 09:49:07;;;;;;;10.90;5.05;;;6.70;99.90;;;;;;5095309;28;20032;-82
2023/04/20 09:51:37;;;;;;;7.90;4.50;;;6.70;99.90;;;;;;5093748;28;20089;-81
2023/04/20 09:54:04;;;;;;;10.95;4.55;;;6.70;99.90;;;;;;5094785;28;20430;-81
2023/04/20 09:56:32;;;;;;;10.13;4.65;;;6.80;99.90;;;;;;5095152;28;20098;-81
2023/04/20 09:58:58;;;;;;;9.00;4.75;;;6.80;99.90;;;;;;5093872;28;20056;-81
2023/04/20 10:01:24;;;;;;;9.68;5.22;;;6.80;99.90;;;;;;5095020;28;20044;-82
2023/04/20 10:03:55;;;;;;;10.70;5.20;;;6.80;99.90;;;;;;5094730;28;20036;-81
2023/04/20 10:06:22;;;;;;;15.65;6.07;;;6.90;99.90;;;;;;5094681;28;20056;-81
2023/04/20 10:08:50;;;;;;;11.70;5.72;;;7.00;99.90;;;;;;5094894;28;20043;-82
2023/04/20 10:11:25;;;;;;;14.45;6.38;;;7.00;99.90;;;;;;5094651;28;20495;-82
2023/04/20 10:13:51;;;;;;;15.52;6.10;;;7.00;99.90;;;;;;5093341;28;20119;-82
2023/04/20 10:16:18;;;;;;;12.45;5.80;;;7.10;99.90;;;;;;5094775;28;20128;-81
2023/04/20 10:18:59;;;;;;;15.95;6.97;;;7.30;99.90;;;;;;5094504;28;20044;-81
2023/04/20 10:21:26;;;;;;;10.02;5.45;;;7.30;99.90;;;;;;5094487;28;20072;-80
2023/04/20 10:23:53;;;;;;;13.25;6.32;;;7.30;99.90;;;;;;5094075;28;20461;-81
2023/04/20 10:26:34;;;;;;;11.43;5.97;;;7.30;99.90;;;;;;5094608;28;20105;-82
2023/04/20 10:28:59;;;;;;;10.63;6.05;;;7.40;99.90;;;;;;5094584;28;20102;-81
2023/04/20 10:31:41;;;;;;;9.95;5.82;;;7.40;99.90;;;;;;5092476;28;20048;-81
2023/04/20 10:34:08;;;;;;;16.13;6.75;;;7.40;99.90;;;;;;5094278;28;20044;-81
2023/04/20 10:36:35;;;;;;;14.77;6.18;;;7.60;99.90;;;;;;5093034;28;20083;-81
2023/04/20 10:39:15;;;;;;;11.45;6.80;;;7.60;99.90;;;;;;5093130;28;20392;-80
2023/04/20 10:41:53;;;;;;;11.85;5.57;;;7.60;99.90;;;;;;5094541;28;20039;-80
2023/04/20 10:44:20;;;;;;;13.90;6.10;;;7.60;99.90;;;;;;5094355;28;20058;-80
2023/04/20 10:46:49;;;;;;;13.38;6.43;;;7.70;99.90;;;;;;5094299;28;20044;-81
2023/04/20 10:49:15;;;;;;;10.70;5.38;;;7.70;99.90;;;;;;5092881;28;20053;-78
2023/04/20 10:51:51;;;;;;;8.85;5.13;;;7.70;99.90;;;;;;5094110;28;20044;-80
2023/04/20 10:54:18;;;;;;;11.63;5.35;;;7.70;99.90;;;;;;5093783;28;20479;-84
2023/04/20 10:56:51;;;;;;;11.20;6.03;;;7.80;99.90;;;;;;5092597;28;20093;-83
2023/04/20 10:59:19;;;;;;;15.52;6.03;;;7.80;99.90;;;;;;5094024;28;20047;-82
2023/04/20 11:01:46;;;;;;;11.05;5.68;;;7.80;99.90;;;;;;5094037;28;20067;-81
2023/04/20 11:04:13;;;;;;;9.68;5.57;;;7.90;99.90;;;;;;5093973;28;20047;-81
2023/04/20 11:06:41;;;;;;;11.02;6.22;;;7.90;99.90;;;;;;5093590;28;20403;-80
2023/04/20 11:09:25;;;;;;;11.88;5.85;;;7.90;99.90;;;;;;5093993;28;20093;-80
2023/04/20 11:11:58;;;;;;;11.35;6.45;;;7.90;99.90;;;;;;5093707;28;20080;-80
2023/04/20 11:14:23;;;;;;;12.05;5.88;;;8.00;99.90;;;;;;5092321;28;20131;-81
2023/04/20 11:16:53;;;;;;;10.82;5.88;;;8.00;99.90;;;;;;5093668;28;20115;-81
2023/04/20 11:19:31;;;;;;;9.60;5.70;;;8.00;99.90;;;;;;5093747;28;20043;-81
2023/04/20 11:21:59;;;;;;;11.27;6.68;;;7.90;99.90;;;;;;5093519;28;20036;-81
2023/04/20 11:24:29;;;;;;;9.32;6.13;;;7.90;99.90;;;;;;5093753;28;20051;-81
2023/04/20 11:26:56;;;;;;;9.90;5.72;;;7.90;99.90;;;;;;5092013;28;20056;-81
2023/04/20 11:29:38;;;;;;;10.95;5.93;;;7.90;99.90;;;;;;5093522;28;20032;-81
2023/04/20 11:32:09;;;;;;;10.88;6.15;;;7.90;99.90;;;;;;5093587;28;20122;-81
2023/04/20 11:34:36;;;;;;;9.23;5.80;;;7.80;99.90;;;;;;5093494;28;20057;-80
2023/04/20 11:37:10;;;;;;;11.07;5.72;;;7.80;99.90;;;;;;5092241;28;20047;-85
2023/04/20 11:39:37;;;;;;;12.45;6.65;;;7.90;99.90;;;;;;5093581;28;20043;-84
2023/04/20 11:42:03;;;;;;;12.43;6.63;;;7.80;99.90;;;;;;5093498;28;20060;-85
2023/04/20 11:44:29;;;;;;;9.57;6.82;;;7.80;99.90;;;;;;5097416;28;20399;-84
2023/04/20 11:46:56;;;;;;;13.70;6.50;;;7.80;99.90;;;;;;5097513;28;20050;-84
2023/04/20 11:49:26;;;;;;;11.93;6.93;;;7.90;99.90;;;;;;5097708;28;20040;-85
2023/04/20 11:51:52;;;;;;;12.00;6.82;;;8.00;99.90;;;;;;5097456;28;20048;-84
2023/04/20 11:54:18;;;;;;;8.90;6.05;;;8.20;99.90;;;;;;5097197;28;20102;-84
2023/04/20 11:56:44;;;;;;;11.73;6.60;;;8.50;99.90;;;;;;5097178;28;20051;-84
2023/04/20 11:59:12;;;;;;;9.52;6.43;;;8.70;99.90;;;;;;5097221;28;20546;-84
2023/04/20 12:01:38;;;;;;;11.30;6.95;;;8.90;99.90;;;;;;5097162;28;20509;-84
2023/04/20 12:04:04;;;;;;;11.77;6.70;;;9.00;99.90;;;;;;5097096;28;20044;-83
2023/04/20 12:06:33;;;;;;;10.73;6.20;;;9.10;99.90;;;;;;5095722;28;20127;-83
2023/04/20 12:08:59;;;;;;;9.77;5.97;;;9.10;99.90;;;;;;5095805;28;20491;-83
2023/04/20 12:11:25;;;;;;;13.23;6.63;;;9.10;99.90;;;;;;5096183;28;20419;-83
2023/04/20 12:13:52;;;;;;;9.18;6.32;;;8.90;99.90;;;;;;5096822;28;20040;-84
2023/04/20 12:16:18;;;;;;;12.88;6.47;;;8.90;99.90;;;;;;5097208;28;20044;-84
2023/04/20 12:18:43;;;;;;;11.25;6.57;;;8.90;99.90;;;;;;5095571;28;20044;-84
2023/04/20 12:21:09;;;;;;;9.95;5.75;;;8.80;99.90;;;;;;5095403;28;20052;-84
2023/04/20 12:23:37;;;;;;;9.63;5.82;;;8.80;99.90;;;;;;5096600;28;20491;-85
2023/04/20 12:26:04;;;;;;;12.07;6.38;;;8.80;99.90;;;;;;5095715;28;20083;-84
2023/04/20 12:28:30;;;;;;;11.70;6.60;;;8.80;99.90;;;;;;5096885;28;20093;-84
2023/04/20 12:30:56;;;;;;;11.13;6.47;;;8.80;99.90;;;;;;5096924;28;20036;-83
2023/04/20 12:33:22;;;;;;;10.63;6.38;;;8.70;99.90;;;;;;5096654;28;20036;-84
2023/04/20 12:35:47;;;;;;;11.57;6.60;;;8.60;99.90;;;;;;5096701;28;20411;-82
2023/04/20 12:38:13;;;;;;;9.43;5.93;;;8.60;99.90;;;;;;5096656;28;20040;-83
2023/04/20 12:40:39;;;;;;;10.32;7.28;;;8.60;99.90;;;;;;5096504;28;20051;-85
2023/04/20 12:43:04;;;;;;;11.05;6.80;;;8.50;99.90;;;;;;5096367;28;20052;-84
2023/04/20 12:45:30;;;;;;;9.32;6.35;;;8.50;99.90;;;;;;5096450;28;20044;-85
2023/04/20 12:47:57;;;;;;;10.48;7.00;;;8.50;99.90;;;;;;5129117;27;20395;-84
2023/04/20 12:50:23;;;;;;;9.98;6.28;;;8.50;99.90;;;;;;5096444;28;20044;-85